sensor_id;sensor_type;location;lat;lon;timestamp;pressure;altitude;pressure_sealevel;temperature;humidity
20656;BME280;10487;53.320;8.672;2023-03-03T00:01:53;102275.25;;;0.88;57.13
20656;BME280;10487;53.320;8.672;2023-03-03T00:04:55;102276.13;;;0.88;57.27
20656;BME280;10487;53.320;8.672;2023-03-03T00:07:57;102284.00;;;0.89;57.14
20656;BME280;10487;53.320;8.672;2023-03-03T00:10:58;102270.88;;;0.88;57.53
20656;BME280;10487;53.320;8.672;2023-03-03T00:14:01;102270.88;;;0.86;57.35
20656;BME280;10487;53.320;8.672;2023-03-03T00:17:16;102271.75;;;0.86;57.19
20656;BME280;10487;53.320;8.672;2023-03-03T00:23:37;102264.75;;;0.84;57.35
20656;BME280;10487;53.320;8.672;2023-03-03T00:26:41;102268.28;;;0.84;57.55
20656;BME280;10487;53.320;8.672;2023-03-03T00:29:49;102272.63;;;0.85;57.60
20656;BME280;10487;53.320;8.672;2023-03-03T00:32:54;102271.78;;;0.85;57.62
20656;BME280;10487;53.320;8.672;2023-03-03T00:35:58;102270.91;;;0.84;57.79
20656;BME280;10487;53.320;8.672;2023-03-03T00:42:32;102269.13;;;0.83;57.44
20656;BME280;10487;53.320;8.672;2023-03-03T00:45:53;102263.84;;;0.83;57.65
20656;BME280;10487;53.320;8.672;2023-03-03T00:48:55;102265.59;;;0.83;57.44
20656;BME280;10487;53.320;8.672;2023-03-03T00:51:56;102271.78;;;0.82;57.52
20656;BME280;10487;53.320;8.672;2023-03-03T00:54:58;102270.00;;;0.81;57.62
20656;BME280;10487;53.320;8.672;2023-03-03T00:57:59;102263.91;;;0.80;57.60
20656;BME280;10487;53.320;8.672;2023-03-03T01:01:01;102272.66;;;0.81;57.45
20656;BME280;10487;53.320;8.672;2023-03-03T01:04:03;102275.28;;;0.82;57.57
20656;BME280;10487;53.320;8.672;2023-03-03T01:07:04;102269.16;;;0.82;57.55
20656;BME280;10487;53.320;8.672;2023-03-03T01:10:06;102269.16;;;0.82;57.80
20656;BME280;10487;53.320;8.672;2023-03-03T01:13:09;102261.25;;;0.82;57.77
20656;BME280;10487;53.320;8.672;2023-03-03T01:16:10;102265.59;;;0.83;57.75
20656;BME280;10487;53.320;8.672;2023-03-03T01:19:12;102256.00;;;0.82;57.79
20656;BME280;10487;53.320;8.672;2023-03-03T01:22:14;102252.50;;;0.81;57.60
20656;BME280;10487;53.320;8.672;2023-03-03T01:25:16;102253.41;;;0.80;57.55
20656;BME280;10487;53.320;8.672;2023-03-03T01:28:17;102264.75;;;0.81;57.88
20656;BME280;10487;53.320;8.672;2023-03-03T01:31:19;102258.63;;;0.82;57.50
20656;BME280;10487;53.320;8.672;2023-03-03T01:34:21;102250.75;;;0.82;57.87
20656;BME280;10487;53.320;8.672;2023-03-03T01:37:22;102245.50;;;0.82;57.71
20656;BME280;10487;53.320;8.672;2023-03-03T01:40:26;102256.88;;;0.82;57.44
20656;BME280;10487;53.320;8.672;2023-03-03T01:43:30;102251.63;;;0.82;57.66
20656;BME280;10487;53.320;8.672;2023-03-03T01:46:41;102240.25;;;0.82;57.49
20656;BME280;10487;53.320;8.672;2023-03-03T01:49:55;102236.75;;;0.80;57.70
20656;BME280;10487;53.320;8.672;2023-03-03T01:52:59;102234.16;;;0.77;57.74
20656;BME280;10487;53.320;8.672;2023-03-03T01:56:05;102234.19;;;0.75;57.67
20656;BME280;10487;53.320;8.672;2023-03-03T01:59:19;102231.56;;;0.74;57.81
20656;BME280;10487;53.320;8.672;2023-03-03T02:02:23;102222.81;;;0.72;57.79
20656;BME280;10487;53.320;8.672;2023-03-03T02:05:26;102229.84;;;0.68;57.91
20656;BME280;10487;53.320;8.672;2023-03-03T02:08:35;102218.47;;;0.66;57.83
20656;BME280;10487;53.320;8.672;2023-03-03T02:11:41;102231.63;;;0.63;57.85
20656;BME280;10487;53.320;8.672;2023-03-03T02:14:44;102231.69;;;0.60;57.99
20656;BME280;10487;53.320;8.672;2023-03-03T02:17:48;102229.97;;;0.58;57.82
20656;BME280;10487;53.320;8.672;2023-03-03T02:21:01;102236.09;;;0.57;57.88
20656;BME280;10487;53.320;8.672;2023-03-03T02:27:14;102236.13;;;0.54;58.15
20656;BME280;10487;53.320;8.672;2023-03-03T02:30:22;102234.38;;;0.53;57.98
20656;BME280;10487;53.320;8.672;2023-03-03T02:33:24;102230.84;;;0.54;58.01
20656;BME280;10487;53.320;8.672;2023-03-03T02:36:31;102229.09;;;0.54;58.08
20656;BME280;10487;53.320;8.672;2023-03-03T02:39:33;102228.25;;;0.51;58.19
20656;BME280;10487;53.320;8.672;2023-03-03T02:42:35;102226.53;;;0.50;58.02
20656;BME280;10487;53.320;8.672;2023-03-03T02:45:42;102231.81;;;0.48;57.89
20656;BME280;10487;53.320;8.672;2023-03-03T02:48:44;102225.69;;;0.48;58.12
20656;BME280;10487;53.320;8.672;2023-03-03T02:51:45;102231.81;;;0.47;57.88
20656;BME280;10487;53.320;8.672;2023-03-03T02:54:47;102227.44;;;0.44;57.80
20656;BME280;10487;53.320;8.672;2023-03-03T02:57:48;102231.81;;;0.44;58.15
20656;BME280;10487;53.320;8.672;2023-03-03T03:00:50;102223.09;;;0.42;57.98
20656;BME280;10487;53.320;8.672;2023-03-03T03:03:52;102229.22;;;0.42;58.43
20656;BME280;10487;53.320;8.672;2023-03-03T03:06:54;102225.72;;;0.42;57.86
20656;BME280;10487;53.320;8.672;2023-03-03T03:09:56;102230.97;;;0.42;57.95
20656;BME280;10487;53.320;8.672;2023-03-03T03:12:58;102216.97;;;0.43;57.95
20656;BME280;10487;53.320;8.672;2023-03-03T03:16:00;102220.47;;;0.43;57.93
20656;BME280;10487;53.320;8.672;2023-03-03T03:19:02;102214.31;;;0.44;58.36
20656;BME280;10487;53.320;8.672;2023-03-03T03:22:04;102215.19;;;0.45;58.38
20656;BME280;10487;53.320;8.672;2023-03-03T03:25:06;102215.16;;;0.46;58.06
20656;BME280;10487;53.320;8.672;2023-03-03T03:28:07;102215.16;;;0.48;58.20
20656;BME280;10487;53.320;8.672;2023-03-03T03:31:09;102223.06;;;0.48;58.04
20656;BME280;10487;53.320;8.672;2023-03-03T03:34:11;102219.53;;;0.50;57.90
20656;BME280;10487;53.320;8.672;2023-03-03T03:37:12;102231.75;;;0.51;58.23
20656;BME280;10487;53.320;8.672;2023-03-03T03:40:14;102227.38;;;0.52;57.96
20656;BME280;10487;53.320;8.672;2023-03-03T03:43:16;102229.13;;;0.51;58.12
20656;BME280;10487;53.320;8.672;2023-03-03T03:46:18;102233.50;;;0.52;57.94
20656;BME280;10487;53.320;8.672;2023-03-03T03:49:19;102230.88;;;0.52;57.95
20656;BME280;10487;53.320;8.672;2023-03-03T03:52:21;102237.00;;;0.53;58.17
20656;BME280;10487;53.320;8.672;2023-03-03T03:55:23;102236.13;;;0.52;58.02
20656;BME280;10487;53.320;8.672;2023-03-03T03:58:25;102244.00;;;0.54;57.97
20656;BME280;10487;53.320;8.672;2023-03-03T04:01:26;102248.38;;;0.53;58.06
20656;BME280;10487;53.320;8.672;2023-03-03T04:04:28;102244.00;;;0.54;58.34
20656;BME280;10487;53.320;8.672;2023-03-03T04:07:30;102248.38;;;0.55;58.03
20656;BME280;10487;53.320;8.672;2023-03-03T04:10:31;102235.25;;;0.55;58.14
20656;BME280;10487;53.320;8.672;2023-03-03T04:13:33;102239.59;;;0.56;58.43
20656;BME280;10487;53.320;8.672;2023-03-03T04:16:35;102229.97;;;0.55;58.42
20656;BME280;10487;53.320;8.672;2023-03-03T04:19:37;102226.44;;;0.56;58.00
20656;BME280;10487;53.320;8.672;2023-03-03T04:22:38;102230.88;;;0.55;58.27
20656;BME280;10487;53.320;8.672;2023-03-03T04:25:40;102232.63;;;0.55;58.30
20656;BME280;10487;53.320;8.672;2023-03-03T04:28:42;102222.97;;;0.54;58.41
20656;BME280;10487;53.320;8.672;2023-03-03T04:31:43;102222.97;;;0.54;58.37
20656;BME280;10487;53.320;8.672;2023-03-03T04:34:45;102220.38;;;0.52;58.38
20656;BME280;10487;53.320;8.672;2023-03-03T04:37:56;102219.47;;;0.53;58.17
20656;BME280;10487;53.320;8.672;2023-03-03T04:40:57;102212.47;;;0.54;58.14
20656;BME280;10487;53.320;8.672;2023-03-03T04:43:59;102216.84;;;0.55;58.36
20656;BME280;10487;53.320;8.672;2023-03-03T04:47:00;102207.19;;;0.57;58.42
20656;BME280;10487;53.320;8.672;2023-03-03T04:50:02;102212.41;;;0.58;58.17
20656;BME280;10487;53.320;8.672;2023-03-03T04:53:04;102210.66;;;0.59;58.49
20656;BME280;10487;53.320;8.672;2023-03-03T04:56:06;102201.91;;;0.60;58.38
20656;BME280;10487;53.320;8.672;2023-03-03T04:59:08;102199.28;;;0.60;58.56
20656;BME280;10487;53.320;8.672;2023-03-03T05:02:09;102201.91;;;0.60;58.32
20656;BME280;10487;53.320;8.672;2023-03-03T05:05:13;102195.75;;;0.61;58.44
20656;BME280;10487;53.320;8.672;2023-03-03T05:08:15;102194.88;;;0.62;58.38
20656;BME280;10487;53.320;8.672;2023-03-03T05:11:17;102189.63;;;0.62;58.27
20656;BME280;10487;53.320;8.672;2023-03-03T05:14:18;102189.59;;;0.63;58.38
20656;BME280;10487;53.320;8.672;2023-03-03T05:17:20;102194.88;;;0.65;58.57
20656;BME280;10487;53.320;8.672;2023-03-03T05:20:22;102191.34;;;0.66;58.42
20656;BME280;10487;53.320;8.672;2023-03-03T05:23:24;102198.34;;;0.67;58.54
20656;BME280;10487;53.320;8.672;2023-03-03T05:26:26;102195.72;;;0.67;58.60
20656;BME280;10487;53.320;8.672;2023-03-03T05:29:28;102200.97;;;0.67;58.41
20656;BME280;10487;53.320;8.672;2023-03-03T05:32:31;102207.94;;;0.69;58.15
20656;BME280;10487;53.320;8.672;2023-03-03T05:35:33;102207.06;;;0.69;58.33
20656;BME280;10487;53.320;8.672;2023-03-03T05:38:35;102209.72;;;0.67;58.30
20656;BME280;10487;53.320;8.672;2023-03-03T05:41:37;102199.19;;;0.70;58.63
20656;BME280;10487;53.320;8.672;2023-03-03T05:44:39;102193.91;;;0.72;58.53
20656;BME280;10487;53.320;8.672;2023-03-03T05:47:41;102203.53;;;0.71;58.62
20656;BME280;10487;53.320;8.672;2023-03-03T05:50:42;102214.06;;;0.71;58.32
20656;BME280;10487;53.320;8.672;2023-03-03T05:53:44;102222.81;;;0.72;58.71
20656;BME280;10487;53.320;8.672;2023-03-03T05:56:45;102222.78;;;0.73;58.50
20656;BME280;10487;53.320;8.672;2023-03-03T05:59:47;102221.03;;;0.74;58.66
20656;BME280;10487;53.320;8.672;2023-03-03T06:02:49;102231.56;;;0.75;58.48
20656;BME280;10487;53.320;8.672;2023-03-03T06:05:50;102234.16;;;0.77;58.42
20656;BME280;10487;53.320;8.672;2023-03-03T06:08:52;102233.28;;;0.78;58.55
20656;BME280;10487;53.320;8.672;2023-03-03T06:11:57;102236.75;;;0.78;58.41
20656;BME280;10487;53.320;8.672;2023-03-03T06:14:59;102239.38;;;0.78;58.66
20656;BME280;10487;53.320;8.672;2023-03-03T06:18:00;102238.50;;;0.79;58.36
20656;BME280;10487;53.320;8.672;2023-03-03T06:21:02;102247.25;;;0.81;58.35
20656;BME280;10487;53.320;8.672;2023-03-03T06:24:04;102250.75;;;0.82;58.31
20656;BME280;10487;53.320;8.672;2023-03-03T06:27:06;102248.13;;;0.82;58.40
20656;BME280;10487;53.320;8.672;2023-03-03T06:30:08;102247.22;;;0.83;58.66
20656;BME280;10487;53.320;8.672;2023-03-03T06:33:10;102242.88;;;0.85;58.45
20656;BME280;10487;53.320;8.672;2023-03-03T06:36:12;102248.97;;;0.87;58.77
20656;BME280;10487;53.320;8.672;2023-03-03T06:39:13;102248.97;;;0.90;58.67
20656;BME280;10487;53.320;8.672;2023-03-03T06:42:15;102249.81;;;0.92;58.47
20656;BME280;10487;53.320;8.672;2023-03-03T06:45:16;102257.66;;;0.95;58.34
20656;BME280;10487;53.320;8.672;2023-03-03T06:48:18;102253.25;;;0.97;58.76
20656;BME280;10487;53.320;8.672;2023-03-03T06:51:30;102255.88;;;1.00;58.67
20656;BME280;10487;53.320;8.672;2023-03-03T06:54:33;102257.59;;;1.01;58.79
20656;BME280;10487;53.320;8.672;2023-03-03T06:57:35;102252.31;;;1.04;58.75
20656;BME280;10487;53.320;8.672;2023-03-03T07:00:37;102261.00;;;1.09;58.75
20656;BME280;10487;53.320;8.672;2023-03-03T07:03:41;102258.31;;;1.15;58.64
20656;BME280;10487;53.320;8.672;2023-03-03T07:06:42;102267.00;;;1.20;58.56
20656;BME280;10487;53.320;8.672;2023-03-03T07:09:46;102266.06;;;1.29;58.66
20656;BME280;10487;53.320;8.672;2023-03-03T07:12:48;102268.56;;;1.39;59.02
20656;BME280;10487;53.320;8.672;2023-03-03T07:15:52;102269.28;;;1.50;58.63
20656;BME280;10487;53.320;8.672;2023-03-03T07:19:00;102274.38;;;1.66;58.48
20656;BME280;10487;53.320;8.672;2023-03-03T07:25:20;102279.41;;;1.84;58.76
20656;BME280;10487;53.320;8.672;2023-03-03T07:28:27;102278.50;;;1.85;58.51
20656;BME280;10487;53.320;8.672;2023-03-03T07:31:39;102279.38;;;1.87;58.51
20656;BME280;10487;53.320;8.672;2023-03-03T07:34:49;102285.69;;;2.33;59.25
20656;BME280;10487;53.320;8.672;2023-03-03T07:37:52;102284.50;;;2.54;59.19
20656;BME280;10487;53.320;8.672;2023-03-03T07:40:56;102285.19;;;2.65;58.63
20656;BME280;10487;53.320;8.672;2023-03-03T07:44:05;102283.22;;;2.77;58.90
20656;BME280;10487;53.320;8.672;2023-03-03T07:47:28;102282.28;;;2.80;58.58
20656;BME280;10487;53.320;8.672;2023-03-03T07:50:30;102280.63;;;2.76;58.61
20656;BME280;10487;53.320;8.672;2023-03-03T07:53:33;102278.09;;;2.68;58.27
20656;BME280;10487;53.320;8.672;2023-03-03T07:56:36;102280.88;;;2.59;58.55
20656;BME280;10487;53.320;8.672;2023-03-03T07:59:47;102277.53;;;2.51;58.64
20656;BME280;10487;53.320;8.672;2023-03-03T08:05:56;102268.94;;;2.37;58.74
20656;BME280;10487;53.320;8.672;2023-03-03T08:12:42;102280.66;;;2.18;58.56
20656;BME280;10487;53.320;8.672;2023-03-03T08:15:48;102284.28;;;2.11;58.64
20656;BME280;10487;53.320;8.672;2023-03-03T08:18:52;102284.34;;;2.05;58.88
20656;BME280;10487;53.320;8.672;2023-03-03T08:22:09;102284.47;;;1.99;58.48
20656;BME280;10487;53.320;8.672;2023-03-03T08:25:12;102283.66;;;1.94;58.75
20656;BME280;10487;53.320;8.672;2023-03-03T08:28:14;102281.97;;;1.88;58.63
20656;BME280;10487;53.320;8.672;2023-03-03T08:31:16;102284.66;;;1.84;58.71
20656;BME280;10487;53.320;8.672;2023-03-03T08:34:34;102282.09;;;1.79;59.05
20656;BME280;10487;53.320;8.672;2023-03-03T08:37:36;102280.34;;;1.78;58.76
20656;BME280;10487;53.320;8.672;2023-03-03T08:40:38;102282.06;;;1.81;59.03
20656;BME280;10487;53.320;8.672;2023-03-03T08:43:39;102284.66;;;1.82;58.79
20656;BME280;10487;53.320;8.672;2023-03-03T08:46:41;102288.16;;;1.83;58.84
20656;BME280;10487;53.320;8.672;2023-03-03T08:49:44;102276.78;;;1.82;58.80
20656;BME280;10487;53.320;8.672;2023-03-03T08:52:46;102286.38;;;1.85;59.13
20656;BME280;10487;53.320;8.672;2023-03-03T08:55:49;102283.75;;;1.86;58.81
20656;BME280;10487;53.320;8.672;2023-03-03T08:58:51;102286.34;;;1.88;58.82
20656;BME280;10487;53.320;8.672;2023-03-03T09:02:04;102297.78;;;1.87;58.91
20656;BME280;10487;53.320;8.672;2023-03-03T09:05:06;102288.97;;;1.88;58.91
20656;BME280;10487;53.320;8.672;2023-03-03T09:08:08;102285.47;;;1.89;58.92
20656;BME280;10487;53.320;8.672;2023-03-03T09:11:12;102295.06;;;1.93;59.00
20656;BME280;10487;53.320;8.672;2023-03-03T09:14:16;102289.78;;;1.93;58.77
20656;BME280;10487;53.320;8.672;2023-03-03T09:20:31;102299.38;;;1.98;58.76
20656;BME280;10487;53.320;8.672;2023-03-03T09:23:54;102303.72;;;2.01;58.85
20656;BME280;10487;53.320;8.672;2023-03-03T09:26:57;102302.81;;;2.03;58.85
20656;BME280;10487;53.320;8.672;2023-03-03T09:30:26;102298.44;;;2.02;59.08
20656;BME280;10487;53.320;8.672;2023-03-03T09:33:43;102303.66;;;2.05;58.77
20656;BME280;10487;53.320;8.672;2023-03-03T09:36:44;102300.97;;;2.10;59.01
20656;BME280;10487;53.320;8.672;2023-03-03T09:39:51;102298.25;;;2.16;59.04
20656;BME280;10487;53.320;8.672;2023-03-03T09:52:55;102300.56;;;2.37;58.96
20656;BME280;10487;53.320;8.672;2023-03-03T09:56:08;102298.59;;;2.51;59.19
20656;BME280;10487;53.320;8.672;2023-03-03T09:59:25;102299.22;;;2.65;59.27
20656;BME280;10487;53.320;8.672;2023-03-03T10:18:29;102305.50;;;5.40;59.38
20656;BME280;10487;53.320;8.672;2023-03-03T10:21:49;102301.06;;;5.40;58.82
20656;BME280;10487;53.320;8.672;2023-03-03T10:46:24;102298.97;;;4.87;58.96
20656;BME280;10487;53.320;8.672;2023-03-03T11:01:58;102300.13;;;4.75;58.73
20656;BME280;10487;53.320;8.672;2023-03-03T11:05:12;102298.34;;;4.76;58.80
20656;BME280;10487;53.320;8.672;2023-03-03T11:08:27;102306.34;;;4.74;58.77
20656;BME280;10487;53.320;8.672;2023-03-03T11:21:45;102286.19;;;4.69;58.63
20656;BME280;10487;53.320;8.672;2023-03-03T11:35:03;102287.72;;;4.79;58.57
20656;BME280;10487;53.320;8.672;2023-03-03T11:45:12;102269.13;;;4.82;58.48
20656;BME280;10487;53.320;8.672;2023-03-03T11:51:39;102264.59;;;4.87;58.37
20656;BME280;10487;53.320;8.672;2023-03-03T11:54:51;102262.75;;;4.89;58.33
20656;BME280;10487;53.320;8.672;2023-03-03T11:58:03;102256.59;;;4.89;58.40
20656;BME280;10487;53.320;8.672;2023-03-03T12:01:25;102258.41;;;4.87;58.31
20656;BME280;10487;53.320;8.672;2023-03-03T12:04:36;102258.44;;;4.85;58.21
20656;BME280;10487;53.320;8.672;2023-03-03T12:07:46;102251.44;;;4.83;58.24
20656;BME280;10487;53.320;8.672;2023-03-03T12:21:09;102247.56;;;4.97;58.17
20656;BME280;10487;53.320;8.672;2023-03-03T12:24:51;102242.28;;;4.96;57.98
20656;BME280;10487;53.320;8.672;2023-03-03T12:38:39;102234.47;;;4.91;57.99
20656;BME280;10487;53.320;8.672;2023-03-03T12:45:06;102225.66;;;4.91;57.96
20656;BME280;10487;53.320;8.672;2023-03-03T13:11:37;102198.88;;;4.70;57.74
20656;BME280;10487;53.320;8.672;2023-03-03T13:18:24;102196.09;;;4.76;57.69
20656;BME280;10487;53.320;8.672;2023-03-03T13:21:58;102190.03;;;5.04;58.33
20656;BME280;10487;53.320;8.672;2023-03-03T13:25:34;102196.06;;;5.39;58.27
20656;BME280;10487;53.320;8.672;2023-03-03T13:32:19;102188.88;;;5.45;57.60
20656;BME280;10487;53.320;8.672;2023-03-03T13:35:43;102185.59;;;5.36;57.52
20656;BME280;10487;53.320;8.672;2023-03-03T13:38:52;102186.72;;;5.28;57.65
20656;BME280;10487;53.320;8.672;2023-03-03T13:42:23;102181.78;;;5.16;57.47
20656;BME280;10487;53.320;8.672;2023-03-03T13:49:01;102176.03;;;5.00;57.50
20656;BME280;10487;53.320;8.672;2023-03-03T13:52:11;102169.22;;;4.92;57.47
20656;BME280;10487;53.320;8.672;2023-03-03T13:55:23;102164.97;;;4.86;57.50
20656;BME280;10487;53.320;8.672;2023-03-03T14:02:00;102153.66;;;4.81;57.54
20656;BME280;10487;53.320;8.672;2023-03-03T14:18:29;102143.34;;;4.72;57.43
20656;BME280;10487;53.320;8.672;2023-03-03T14:21:39;102139.84;;;4.70;57.42
20656;BME280;10487;53.320;8.672;2023-03-03T14:25:06;102134.47;;;4.73;57.38
20656;BME280;10487;53.320;8.672;2023-03-03T14:28:11;102127.41;;;4.73;57.47
20656;BME280;10487;53.320;8.672;2023-03-03T14:40:33;102121.03;;;4.81;57.30
20656;BME280;10487;53.320;8.672;2023-03-03T14:43:39;102109.56;;;4.80;57.33
20656;BME280;10487;53.320;8.672;2023-03-03T14:46:42;102114.88;;;4.80;57.31
20656;BME280;10487;53.320;8.672;2023-03-03T14:49:45;102117.50;;;4.82;57.28
20656;BME280;10487;53.320;8.672;2023-03-03T14:53:05;102102.53;;;4.81;57.27
20656;BME280;10487;53.320;8.672;2023-03-03T14:56:21;102108.75;;;4.80;57.30
20656;BME280;10487;53.320;8.672;2023-03-03T14:59:25;102103.47;;;4.78;57.21
20656;BME280;10487;53.320;8.672;2023-03-03T15:05:48;102105.25;;;4.77;57.16
20656;BME280;10487;53.320;8.672;2023-03-03T15:08:50;102095.53;;;4.78;57.25
20656;BME280;10487;53.320;8.672;2023-03-03T15:11:53;102097.38;;;4.76;57.21
20656;BME280;10487;53.320;8.672;2023-03-03T15:15:19;102094.72;;;4.76;57.25
20656;BME280;10487;53.320;8.672;2023-03-03T15:18:21;102088.53;;;4.77;57.09
20656;BME280;10487;53.320;8.672;2023-03-03T15:21:26;102085.03;;;4.75;57.25
20656;BME280;10487;53.320;8.672;2023-03-03T15:25:33;102081.50;;;4.76;57.17
20656;BME280;10487;53.320;8.672;2023-03-03T15:28:31;102078.84;;;4.76;57.04
20656;BME280;10487;53.320;8.672;2023-03-03T15:37:51;102074.44;;;4.76;57.18
20656;BME280;10487;53.320;8.672;2023-03-03T15:44:12;102068.22;;;4.77;56.99
20656;BME280;10487;53.320;8.672;2023-03-03T15:47:19;102057.69;;;4.76;57.04
20656;BME280;10487;53.320;8.672;2023-03-03T15:50:32;102057.75;;;4.74;57.09
20656;BME280;10487;53.320;8.672;2023-03-03T15:53:44;102057.75;;;4.74;56.99
20656;BME280;10487;53.320;8.672;2023-03-03T15:56:56;102059.56;;;4.72;57.07
20656;BME280;10487;53.320;8.672;2023-03-03T16:03:18;102050.84;;;4.69;57.13
20656;BME280;10487;53.320;8.672;2023-03-03T16:09:51;102055.22;;;4.70;57.18
20656;BME280;10487;53.320;8.672;2023-03-03T16:42:47;102066.56;;;4.43;57.01
20656;BME280;10487;53.320;8.672;2023-03-03T16:46:02;102063.97;;;4.41;56.91
20656;BME280;10487;53.320;8.672;2023-03-03T16:56:35;102067.84;;;4.28;56.93
20656;BME280;10487;53.320;8.672;2023-03-03T16:59:51;102075.00;;;4.25;56.94
20656;BME280;10487;53.320;8.672;2023-03-03T17:12:57;102070.50;;;4.28;56.77
20656;BME280;10487;53.320;8.672;2023-03-03T17:20:28;102063.63;;;4.23;56.60
20656;BME280;10487;53.320;8.672;2023-03-03T17:26:50;102071.78;;;4.13;56.75
20656;BME280;10487;53.320;8.672;2023-03-03T17:56:23;102081.72;;;4.04;56.64
20656;BME280;10487;53.320;8.672;2023-03-03T18:00:05;102080.88;;;4.02;56.70
20656;BME280;10487;53.320;8.672;2023-03-03T18:04:08;102082.72;;;4.00;56.62
20656;BME280;10487;53.320;8.672;2023-03-03T18:13:43;102087.13;;;3.99;56.49
20656;BME280;10487;53.320;8.672;2023-03-03T18:26:40;102091.56;;;3.97;56.57
20656;BME280;10487;53.320;8.672;2023-03-03T18:30:23;102087.13;;;3.99;56.72
20656;BME280;10487;53.320;8.672;2023-03-03T18:36:38;102080.63;;;4.13;56.54
20656;BME280;10487;53.320;8.672;2023-03-03T18:43:38;102082.94;;;4.25;56.43
20656;BME280;10487;53.320;8.672;2023-03-03T18:46:45;102083.69;;;4.30;56.38
20656;BME280;10487;53.320;8.672;2023-03-03T18:49:50;102082.88;;;4.28;56.40
20656;BME280;10487;53.320;8.672;2023-03-03T18:56:49;102086.34;;;4.28;56.39
20656;BME280;10487;53.320;8.672;2023-03-03T19:00:23;102084.59;;;4.29;56.43
20656;BME280;10487;53.320;8.672;2023-03-03T19:10:00;102083.63;;;4.31;56.32
20656;BME280;10487;53.320;8.672;2023-03-03T19:13:07;102083.63;;;4.33;56.38
20656;BME280;10487;53.320;8.672;2023-03-03T19:16:28;102079.97;;;4.37;56.35
20656;BME280;10487;53.320;8.672;2023-03-03T19:19:32;102079.91;;;4.38;56.27
20656;BME280;10487;53.320;8.672;2023-03-03T19:22:49;102078.19;;;4.37;56.28
20656;BME280;10487;53.320;8.672;2023-03-03T19:43:21;102083.69;;;4.30;56.37
20656;BME280;10487;53.320;8.672;2023-03-03T19:53:27;102082.75;;;4.31;56.23
20656;BME280;10487;53.320;8.672;2023-03-03T19:59:49;102086.25;;;4.33;56.24
20656;BME280;10487;53.320;8.672;2023-03-03T20:09:25;102075.84;;;4.27;56.22
20656;BME280;10487;53.320;8.672;2023-03-03T20:19:35;102081.19;;;4.24;56.23
20656;BME280;10487;53.320;8.672;2023-03-03T20:22:54;102086.47;;;4.24;56.23
20656;BME280;10487;53.320;8.672;2023-03-03T20:26:11;102086.53;;;4.22;56.26
20656;BME280;10487;53.320;8.672;2023-03-03T20:43:27;102090.25;;;4.13;56.28
20656;BME280;10487;53.320;8.672;2023-03-03T20:50:06;102093.06;;;4.07;56.44
20656;BME280;10487;53.320;8.672;2023-03-03T20:53:26;102094.84;;;4.07;56.35
20656;BME280;10487;53.320;8.672;2023-03-03T20:59:54;102085.19;;;4.06;56.30
20656;BME280;10487;53.320;8.672;2023-03-03T21:06:18;102083.41;;;4.06;56.56
20656;BME280;10487;53.320;8.672;2023-03-03T21:09:27;102081.66;;;4.05;56.30
20656;BME280;10487;53.320;8.672;2023-03-03T21:12:30;102085.22;;;4.04;56.30
20656;BME280;10487;53.320;8.672;2023-03-03T21:15:33;102079.91;;;4.06;56.42
20656;BME280;10487;53.320;8.672;2023-03-03T21:18:35;102079.00;;;4.07;56.27
20656;BME280;10487;53.320;8.672;2023-03-03T21:21:42;102083.41;;;4.06;56.39
20656;BME280;10487;53.320;8.672;2023-03-03T21:27:50;102085.22;;;4.04;56.30
20656;BME280;10487;53.320;8.672;2023-03-03T21:37:48;102081.09;;;3.94;56.29
20656;BME280;10487;53.320;8.672;2023-03-03T21:40:58;102089.00;;;3.94;56.44
20656;BME280;10487;53.320;8.672;2023-03-03T21:44:00;102083.78;;;3.93;56.56
20656;BME280;10487;53.320;8.672;2023-03-03T21:47:03;102080.25;;;3.92;56.44
20656;BME280;10487;53.320;8.672;2023-03-03T21:50:05;102078.50;;;3.91;56.43
20656;BME280;10487;53.320;8.672;2023-03-03T21:53:07;102069.72;;;3.91;56.29
20656;BME280;10487;53.320;8.672;2023-03-03T21:56:10;102077.69;;;3.89;56.42
20656;BME280;10487;53.320;8.672;2023-03-03T21:59:14;102078.56;;;3.88;56.29
20656;BME280;10487;53.320;8.672;2023-03-03T22:02:16;102067.16;;;3.88;56.38
20656;BME280;10487;53.320;8.672;2023-03-03T22:05:18;102075.16;;;3.85;56.44
20656;BME280;10487;53.320;8.672;2023-03-03T22:08:19;102069.91;;;3.83;56.33
20656;BME280;10487;53.320;8.672;2023-03-03T22:11:22;102069.91;;;3.83;56.37
20656;BME280;10487;53.320;8.672;2023-03-03T22:14:24;102067.25;;;3.83;56.38
20656;BME280;10487;53.320;8.672;2023-03-03T22:17:26;102066.50;;;3.80;56.32
20656;BME280;10487;53.320;8.672;2023-03-03T22:20:28;102058.59;;;3.78;56.41
20656;BME280;10487;53.320;8.672;2023-03-03T22:23:31;102060.34;;;3.79;56.45
20656;BME280;10487;53.320;8.672;2023-03-03T22:26:33;102063.03;;;3.78;56.64
20656;BME280;10487;53.320;8.672;2023-03-03T22:29:35;102057.75;;;3.76;56.64
20656;BME280;10487;53.320;8.672;2023-03-03T22:32:37;102061.22;;;3.78;56.63
20656;BME280;10487;53.320;8.672;2023-03-03T22:35:38;102061.22;;;3.78;56.61
20656;BME280;10487;53.320;8.672;2023-03-03T22:38:40;102057.75;;;3.78;56.44
20656;BME280;10487;53.320;8.672;2023-03-03T22:41:42;102042.78;;;3.77;56.52
20656;BME280;10487;53.320;8.672;2023-03-03T22:44:43;102044.56;;;3.76;56.59
20656;BME280;10487;53.320;8.672;2023-03-03T22:47:46;102041.91;;;3.76;56.79
20656;BME280;10487;53.320;8.672;2023-03-03T22:50:48;102056.88;;;3.77;56.53
20656;BME280;10487;53.320;8.672;2023-03-03T22:53:49;102041.09;;;3.74;56.51
20656;BME280;10487;53.320;8.672;2023-03-03T22:56:51;102039.34;;;3.75;56.61
20656;BME280;10487;53.320;8.672;2023-03-03T22:59:52;102041.03;;;3.76;56.60
20656;BME280;10487;53.320;8.672;2023-03-03T23:02:54;102045.44;;;3.77;56.46
20656;BME280;10487;53.320;8.672;2023-03-03T23:05:56;102032.28;;;3.75;56.50
20656;BME280;10487;53.320;8.672;2023-03-03T23:08:57;102050.78;;;3.75;56.77
20656;BME280;10487;53.320;8.672;2023-03-03T23:11:59;102045.50;;;3.75;56.72
20656;BME280;10487;53.320;8.672;2023-03-03T23:15:00;102038.41;;;3.76;56.65